Time;durP1;ratioP1;P1;durP2;ratioP2;P2;SDS_P1;SDS_P2;PMS_P1;PMS_P2;Temp;Humidity;BMP_temperature;BMP_pressure;BME280_temperature;BME280_humidity;BME280_pressure;Samples;Min_cycle;Max_cycle;Signal;HPM_P1;HPM_P2
2023/10/01 00:01:40;;;;;;;11.40;4.40;;;;;;;8.33;83.90;101489.80;105485;1256;70614;-51
2023/10/01 00:04:11;;;;;;;5.90;3.30;;;;;;;8.36;84.12;101492.22;105596;1255;69740;-54
2023/10/01 00:06:40;;;;;;;;;;;;;;;8.39;84.05;101491.35;105737;1254;72586;-51
2023/10/01 00:09:09;;;;;;;9.30;3.50;;;;;;;8.40;84.19;101486.81;105652;1251;82940;-51
2023/10/01 00:11:38;;;;;;;9.80;4.40;;;;;;;8.42;84.16;101485.92;105591;1256;73827;-50
2023/10/01 00:14:08;;;;;;;6.40;4.10;;;;;;;8.43;84.32;101486.43;105589;1256;69988;-54
2023/10/01 00:16:53;;;;;;;10.80;4.20;;;;;;;8.44;84.34;101478.40;105647;1253;69804;-51
2023/10/01 00:19:22;;;;;;;10.20;3.90;;;;;;;8.46;84.38;101480.13;105610;1256;74153;-51
2023/10/01 00:21:50;;;;;;;8.90;3.90;;;;;;;8.48;84.45;101479.07;105584;1256;83276;-53
2023/10/01 00:24:18;;;;;;;7.90;3.50;;;;;;;8.50;84.57;101476.60;105550;1253;73723;-53
2023/10/01 00:26:47;;;;;;;6.40;3.40;;;;;;;8.50;84.65;101474.16;105547;1256;69676;-55
2023/10/01 00:29:15;;;;;;;8.30;4.20;;;;;;;8.49;84.61;101472.77;105654;1251;69165;-56
2023/10/01 00:31:45;;;;;;;10.60;3.60;;;;;;;8.49;84.48;101471.05;105426;1257;74117;-56
2023/10/01 00:34:15;;;;;;;9.30;3.50;;;;;;;8.47;84.44;101471.94;105562;1256;82405;-55
2023/10/01 00:36:44;;;;;;;9.10;3.50;;;;;;;8.47;84.51;101468.61;105500;1251;73709;-55
2023/10/01 00:39:13;;;;;;;8.80;3.60;;;;;;;8.48;84.78;101472.45;105691;1255;69190;-55
2023/10/01 00:41:41;;;;;;;6.00;3.30;;;;;;;8.47;84.70;101474.89;105560;1256;69167;-54
2023/10/01 00:44:10;;;;;;;7.70;3.10;;;;;;;8.45;84.48;101478.58;105590;1256;75035;-56
2023/10/01 00:46:39;;;;;;;6.00;3.10;;;;;;;8.43;84.31;101482.78;105754;1255;82378;-56
2023/10/01 00:49:07;;;;;;;8.90;3.60;;;;;;;8.43;84.55;101480.87;105532;1255;73147;-56
2023/10/01 00:51:35;;;;;;;6.60;3.00;;;;;;;8.43;84.74;101476.86;105452;1251;69259;-56
2023/10/01 00:54:04;;;;;;;5.60;3.20;;;;;;;8.42;84.67;101475.64;105760;1256;69119;-56
2023/10/01 00:56:33;;;;;;;8.00;3.00;;;;;;;8.41;84.85;101482.27;105649;1255;75084;-55
2023/10/01 00:59:03;;;;;;;7.80;3.80;;;;;;;8.42;84.93;101467.45;105755;1256;83961;-56
2023/10/01 01:01:33;;;;;;;9.30;3.70;;;;;;;8.42;85.12;101464.48;105547;1256;73027;-56
2023/10/01 01:04:10;;;;;;;9.60;4.20;;;;;;;8.43;85.19;101466.23;105602;1256;69195;-55
2023/10/01 01:06:39;;;;;;;8.50;3.40;;;;;;;8.42;85.14;101463.45;105571;1254;69273;-55
2023/10/01 01:09:11;;;;;;;7.40;3.40;;;;;;;8.43;85.31;101458.56;105570;1256;74655;-56
2023/10/01 01:11:39;;;;;;;8.20;3.40;;;;;;;8.43;85.18;101453.50;105502;1257;83308;-54
2023/10/01 01:14:07;;;;;;;5.20;3.00;;;;;;;8.41;85.25;101452.84;105563;1256;71795;-55
2023/10/01 01:16:36;;;;;;;10.30;3.30;;;;;;;8.39;85.18;101453.55;105625;1256;69164;-56
2023/10/01 01:19:05;;;;;;;8.80;3.40;;;;;;;8.39;85.39;101456.16;105811;1256;69124;-55
2023/10/01 01:21:33;;;;;;;7.20;3.30;;;;;;;8.40;85.51;101451.29;105596;1251;73843;-56
2023/10/01 01:24:03;;;;;;;9.60;3.30;;;;;;;8.40;85.56;101449.20;105549;1254;83428;-56
2023/10/01 01:26:32;;;;;;;8.00;3.50;;;;;;;8.38;85.37;101447.27;105587;1256;73338;-55
2023/10/01 01:29:16;;;;;;;8.30;3.20;;;;;;;8.37;85.27;101447.98;105501;1251;69185;-55
2023/10/01 01:31:45;;;;;;;6.00;3.30;;;;;;;8.38;85.44;101445.17;105487;1258;69230;-56
2023/10/01 01:34:14;;;;;;;7.80;3.50;;;;;;;8.38;85.76;101449.02;105625;1256;73873;-56
2023/10/01 01:36:43;;;;;;;7.40;3.50;;;;;;;8.36;85.77;101445.53;105520;1256;81361;-56
2023/10/01 01:39:32;;;;;;;7.40;3.30;;;;;;;8.38;85.63;101443.09;105461;1254;72407;-56
2023/10/01 01:42:00;;;;;;;5.80;3.20;;;;;;;8.39;86.01;101440.48;105665;1256;69144;-55
2023/10/01 01:44:30;;;;;;;6.20;3.10;;;;;;;8.41;86.00;101439.96;105637;1255;69097;-55
2023/10/01 01:47:02;;;;;;;;;;;;;;;8.41;86.18;101440.82;105615;1256;73899;-55
2023/10/01 01:49:30;;;;;;;7.70;3.80;;;;;;;8.42;86.21;101438.36;105607;1256;83067;-55
2023/10/01 01:52:03;;;;;;;7.30;3.50;;;;;;;8.43;86.26;101436.10;105525;1251;73128;-56
2023/10/01 01:54:39;;;;;;;6.20;3.20;;;;;;;8.45;86.73;101443.39;105574;1264;69190;-55
2023/10/01 01:57:17;;;;;;;8.80;3.70;;;;;;;8.46;86.51;101450.52;105589;1251;69070;-56
2023/10/01 01:59:45;;;;;;;10.40;3.50;;;;;;;8.47;86.69;101454.33;105471;1254;75084;-56
2023/10/01 02:02:14;;;;;;;9.00;3.60;;;;;;;8.51;86.83;101448.38;105611;1253;83396;-54
2023/10/01 02:05:08;;;;;;;6.80;3.80;;;;;;;8.54;86.91;101447.30;105652;1256;73923;-54
2023/10/01 02:07:38;;;;;;;7.00;3.40;;;;;;;8.56;86.94;101448.13;105542;1256;69048;-54
2023/10/01 02:10:07;;;;;;;8.20;3.20;;;;;;;8.58;86.91;101444.10;105611;1254;69030;-55
2023/10/01 02:12:39;;;;;;;9.80;4.10;;;;;;;8.62;87.25;101442.31;105575;1256;73774;-55
2023/10/01 02:15:08;;;;;;;9.20;4.10;;;;;;;8.63;87.05;101433.94;105752;1256;83354;-55
2023/10/01 02:17:39;;;;;;;8.60;3.50;;;;;;;8.63;87.26;101435.34;105471;1259;73659;-56
2023/10/01 02:20:20;;;;;;;9.50;4.00;;;;;;;8.64;87.11;101439.33;105662;1256;69171;-55
2023/10/01 02:22:49;;;;;;;10.50;3.30;;;;;;;8.69;87.35;101441.52;105660;1256;69078;-56
2023/10/01 02:25:18;;;;;;;8.70;3.80;;;;;;;8.70;87.33;101440.13;105472;1259;74775;-56
2023/10/01 02:28:10;;;;;;;8.10;3.80;;;;;;;8.72;87.53;101435.73;105475;1258;82528;-53
2023/10/01 02:30:35;;;;;;;8.50;3.70;;;;;;;8.74;87.47;101430.48;105436;1257;73646;-56
2023/10/01 02:33:16;;;;;;;7.00;3.00;;;;;;;8.77;87.74;101426.27;105645;1257;69211;-56
2023/10/01 02:35:49;;;;;;;8.50;3.30;;;;;;;8.78;87.74;101417.36;105635;1257;69218;-56
2023/10/01 02:41:08;;;;;;;9.30;3.80;;;;;;;8.82;87.76;101417.50;105617;1256;83595;-52
2023/10/01 02:43:41;;;;;;;8.90;3.60;;;;;;;8.84;87.71;101420.77;105557;1256;73539;-56
2023/10/01 02:46:15;;;;;;;7.20;3.70;;;;;;;8.87;87.93;101430.15;105634;1254;69182;-55
2023/10/01 02:48:46;;;;;;;9.10;4.00;;;;;;;8.88;87.96;101424.38;105600;1254;69122;-55
2023/10/01 02:51:14;;;;;;;6.50;3.60;;;;;;;8.90;88.07;101424.17;105585;1256;74811;-53
2023/10/01 02:56:33;;;;;;;9.00;4.20;;;;;;;8.89;87.75;101421.74;105601;1257;73422;-55
2023/10/01 02:59:13;;;;;;;7.70;4.30;;;;;;;8.91;87.89;101422.59;105424;1257;69134;-54
2023/10/01 03:01:48;;;;;;;8.40;4.00;;;;;;;8.91;87.88;101422.25;105734;1256;69288;-56
2023/10/01 03:04:17;;;;;;;8.10;4.00;;;;;;;8.91;88.19;101431.48;105599;1254;74853;-56
2023/10/01 03:06:57;;;;;;;8.80;4.20;;;;;;;8.91;88.12;101431.13;105573;1265;82353;-56
2023/10/01 03:09:32;;;;;;;9.70;4.20;;;;;;;8.92;88.30;101421.89;105483;1251;73688;-55
2023/10/01 03:12:24;;;;;;;8.50;4.10;;;;;;;8.94;88.37;101425.34;105760;1257;69061;-55
2023/10/01 03:16:39;;;;;;;7.80;4.00;;;;;;;8.95;88.43;101430.73;105573;1258;69186;-56
2023/10/01 03:17:58;;;;;;;7.50;3.90;;;;;;;8.96;88.41;101432.30;105390;1256;75094;-56
2023/10/01 03:23:25;;;;;;;5.80;3.50;;;;;;;8.99;88.77;101429.98;105603;1256;73889;-55
2023/10/01 03:26:17;;;;;;;9.20;3.30;;;;;;;9.02;88.62;101427.86;105553;1256;69164;-56
2023/10/01 03:31:32;;;;;;;7.20;3.20;;;;;;;9.09;89.01;101423.21;105556;1254;74866;-55
2023/10/01 03:34:04;;;;;;;8.00;4.00;;;;;;;9.11;89.01;101418.30;105520;1255;83324;-55
2023/10/01 03:36:32;;;;;;;12.10;3.80;;;;;;;9.12;89.14;101415.30;105585;1256;72041;-55
2023/10/01 03:39:25;;;;;;;7.60;3.50;;;;;;;9.14;89.02;101415.29;105657;1256;69129;-55
2023/10/01 03:47:27;;;;;;;7.80;3.50;;;;;;;9.26;89.33;101425.05;105594;1255;83347;-56
2023/10/01 03:49:57;;;;;;;8.20;3.30;;;;;;;9.31;89.38;101420.95;105611;1251;72849;-56
2023/10/01 03:52:29;;;;;;;13.40;3.40;;;;;;;9.35;89.34;101420.73;105568;1253;69172;-55
2023/10/01 03:57:29;;;;;;;7.30;3.30;;;;;;;9.36;89.48;101424.02;105652;1256;73590;-56
2023/10/01 04:00:09;;;;;;;6.60;3.40;;;;;;;9.37;89.38;101419.84;105582;1258;82559;-55
2023/10/01 04:02:47;;;;;;;8.00;3.50;;;;;;;9.39;89.44;101417.53;105559;1257;72689;-55
2023/10/01 04:05:22;;;;;;;8.40;3.90;;;;;;;9.41;89.64;101420.64;105569;1256;69260;-57
2023/10/01 04:07:52;;;;;;;9.50;4.10;;;;;;;9.44;89.72;101420.95;105589;1257;69101;-55
2023/10/01 04:12:58;;;;;;;9.60;4.10;;;;;;;9.52;89.96;101421.16;105721;1256;83227;-56
2023/10/01 04:15:27;;;;;;;9.20;3.90;;;;;;;9.55;90.01;101417.44;105598;1254;73956;-56
2023/10/01 04:18:18;;;;;;;11.50;4.30;;;;;;;9.57;90.06;101422.83;105559;1251;69029;-55
2023/10/01 04:23:31;;;;;;;8.20;3.40;;;;;;;9.63;90.08;101426.90;105650;1251;75042;-54
2023/10/01 04:26:05;;;;;;;9.00;3.70;;;;;;;9.67;90.09;101426.67;105649;1256;83655;-56
2023/10/01 04:28:44;;;;;;;9.80;3.90;;;;;;;9.69;90.12;101426.97;105477;1252;73852;-56
2023/10/01 04:31:18;;;;;;;9.40;3.90;;;;;;;9.72;90.18;101431.30;105579;1252;69218;-55
2023/10/01 04:33:49;;;;;;;8.90;3.80;;;;;;;9.72;90.18;101431.11;105664;1256;69145;-55
2023/10/01 04:36:20;;;;;;;13.70;4.60;;;;;;;9.75;90.47;101430.36;105569;1257;74809;-56
2023/10/01 04:38:51;;;;;;;10.20;4.20;;;;;;;9.80;90.53;101422.95;105493;1255;82530;-56
2023/10/01 04:41:22;;;;;;;7.00;3.50;;;;;;;9.86;90.85;101427.55;105566;1257;72493;-56
2023/10/01 04:43:56;;;;;;;;;;;;;;;9.94;91.09;101421.65;105589;1251;69158;-56
2023/10/01 04:46:29;;;;;;;7.80;3.50;;;;;;;9.97;91.16;101421.77;105631;1257;69157;-55
2023/10/01 04:49:07;;;;;;;8.00;3.20;;;;;;;10.01;91.15;101420.64;105596;1256;75135;-55
2023/10/01 04:51:48;;;;;;;7.30;3.50;;;;;;;10.04;91.07;101425.15;105597;1257;83356;-56
2023/10/01 04:54:21;;;;;;;8.60;3.90;;;;;;;10.03;90.93;101424.45;105492;1251;73604;-55
2023/10/01 04:56:50;;;;;;;8.60;3.50;;;;;;;10.04;90.89;101417.45;105602;1251;69187;-56
2023/10/01 04:59:18;;;;;;;11.40;3.60;;;;;;;10.05;90.79;101411.67;105684;1251;69066;-56
2023/10/01 05:01:56;;;;;;;8.80;3.40;;;;;;;10.06;90.77;101411.66;105639;1251;74688;-55
2023/10/01 05:04:26;;;;;;;7.10;3.20;;;;;;;10.07;90.82;101411.30;105763;1252;83652;-50
2023/10/01 05:07:04;;;;;;;6.80;3.20;;;;;;;10.07;90.78;101410.06;105646;1251;72535;-53
2023/10/01 05:09:33;;;;;;;6.70;3.40;;;;;;;10.09;90.89;101405.31;105560;1251;69067;-53
2023/10/01 05:12:03;;;;;;;6.90;3.40;;;;;;;10.13;90.90;101408.91;105621;1257;69876;-51
2023/10/01 05:14:32;;;;;;;7.80;3.60;;;;;;;10.16;90.90;101407.96;105624;1257;74267;-50
2023/10/01 05:17:07;;;;;;;10.20;3.60;;;;;;;10.18;90.86;101407.23;105960;1251;83795;-57
2023/10/01 05:19:38;;;;;;;8.00;3.40;;;;;;;10.20;90.80;101409.48;106001;1256;73964;-53
2023/10/01 05:22:08;;;;;;;8.30;3.80;;;;;;;10.25;90.97;101416.02;105621;1256;69058;-52
2023/10/01 05:24:39;;;;;;;8.10;3.20;;;;;;;10.30;90.85;101417.52;105621;1258;69027;-55
2023/10/01 05:27:09;;;;;;;6.80;2.80;;;;;;;10.33;90.83;101421.14;105779;1256;74762;-54
2023/10/01 05:29:39;;;;;;;7.10;3.40;;;;;;;10.36;90.80;101422.65;105727;1251;82406;-51
2023/10/01 05:32:10;;;;;;;7.60;3.60;;;;;;;10.38;90.81;101422.60;105776;1257;73494;-56
2023/10/01 05:34:45;;;;;;;8.30;3.40;;;;;;;10.41;90.79;101425.86;105798;1254;69219;-54
2023/10/01 05:37:24;;;;;;;11.20;3.80;;;;;;;10.42;90.73;101430.91;105731;1256;69167;-54
2023/10/01 05:39:57;;;;;;;9.10;3.40;;;;;;;10.46;90.75;101426.63;105831;1254;74977;-53
2023/10/01 05:42:40;;;;;;;9.70;3.40;;;;;;;10.52;90.74;101430.73;105624;1256;83619;-52
2023/10/01 05:45:18;;;;;;;9.50;3.70;;;;;;;10.55;90.72;101434.33;105683;1254;73881;-53
2023/10/01 05:47:54;;;;;;;8.80;3.50;;;;;;;10.58;90.73;101441.06;105661;1251;69858;-52
2023/10/01 05:50:28;;;;;;;5.80;3.20;;;;;;;10.62;90.73;101438.20;105793;1256;69807;-50
2023/10/01 05:52:57;;;;;;;5.00;3.00;;;;;;;10.65;90.51;101432.19;105705;1255;74836;-52
2023/10/01 05:55:26;;;;;;;8.10;3.20;;;;;;;10.68;90.52;101430.55;105938;1255;83475;-50
2023/10/01 05:58:12;;;;;;;7.50;3.90;;;;;;;10.69;90.39;101429.30;105590;1256;72268;-52
2023/10/01 06:00:45;;;;;;;8.00;4.00;;;;;;;10.70;90.31;101424.03;105582;1254;69787;-50
2023/10/01 06:03:18;;;;;;;11.20;3.60;;;;;;;10.74;90.43;101420.98;105657;1257;69937;-50
2023/10/01 06:05:58;;;;;;;8.50;3.40;;;;;;;10.79;90.36;101417.92;105719;1255;74569;-53
2023/10/01 06:08:32;;;;;;;;;;;;;;;10.82;90.28;101414.69;105597;1256;84520;-50
2023/10/01 06:13:37;;;;;;;9.30;3.60;;;;;;;10.91;90.49;101418.34;105673;1252;69870;-49
2023/10/01 06:16:16;;;;;;;6.50;2.90;;;;;;;10.98;90.46;101425.55;105700;1256;69867;-50
2023/10/01 06:18:50;;;;;;;12.10;4.00;;;;;;;11.07;90.52;101424.98;105677;1251;73579;-52
2023/10/01 06:21:29;;;;;;;10.40;4.00;;;;;;;11.17;90.49;101421.25;105653;1251;82827;-51
2023/10/01 06:23:59;;;;;;;8.40;3.80;;;;;;;11.24;90.48;101427.73;105591;1256;308710;-50
2023/10/01 06:26:39;;;;;;;13.60;4.00;;;;;;;11.31;90.52;101429.66;105741;1257;69922;-51
2023/10/01 06:29:11;;;;;;;9.00;3.90;;;;;;;11.38;90.17;101432.48;105684;1254;69934;-53
2023/10/01 06:32:00;;;;;;;8.20;3.20;;;;;;;11.44;90.33;101434.27;105657;1258;75056;-53
2023/10/01 06:34:32;;;;;;;9.80;3.90;;;;;;;11.51;90.20;101438.80;106018;1256;83721;-53
2023/10/01 06:37:01;;;;;;;9.50;3.50;;;;;;;11.59;90.17;101442.64;105760;1254;73540;-55
2023/10/01 06:39:33;;;;;;;10.30;3.60;;;;;;;11.67;90.07;101443.36;105655;1254;69303;-52
2023/10/01 06:42:20;;;;;;;10.10;3.70;;;;;;;11.70;89.66;101442.20;105656;1257;69184;-52
2023/10/01 06:44:58;;;;;;;7.90;3.50;;;;;;;11.75;89.72;101441.19;105627;1253;74808;-51
2023/10/01 06:47:28;;;;;;;8.60;3.40;;;;;;;11.83;89.76;101444.69;105651;1257;83282;-52
2023/10/01 06:52:36;;;;;;;7.40;3.30;;;;;;;11.96;89.61;101449.12;105776;1256;69993;-52
2023/10/01 06:55:04;;;;;;;7.60;3.60;;;;;;;12.03;89.83;101447.86;105672;1254;69164;-50
2023/10/01 06:57:33;;;;;;;9.60;4.10;;;;;;;12.12;89.77;101442.20;105750;1256;74999;-52
2023/10/01 07:00:13;;;;;;;12.30;4.20;;;;;;;12.22;89.70;101443.50;105682;1254;82422;-53
2023/10/01 07:02:41;;;;;;;7.00;3.30;;;;;;;12.31;89.76;101437.66;105862;1253;72627;-51
2023/10/01 07:05:20;;;;;;;8.10;3.00;;;;;;;12.40;89.64;101447.08;105736;1254;69862;-52
2023/10/01 07:07:49;;;;;;;11.20;3.40;;;;;;;12.49;89.37;101443.82;105725;1253;69801;-53
2023/10/01 07:10:19;;;;;;;7.10;3.80;;;;;;;12.56;89.38;101441.86;105772;1251;74867;-50
2023/10/01 07:12:58;;;;;;;6.00;3.20;;;;;;;12.66;89.50;101437.54;105649;1252;82407;-52
2023/10/01 07:15:27;;;;;;;8.00;3.10;;;;;;;12.82;89.58;101437.95;105679;1257;72727;-52
2023/10/01 07:17:58;;;;;;;8.70;3.40;;;;;;;12.99;89.67;101433.02;105586;1254;69928;-50
2023/10/01 07:20:26;;;;;;;9.10;3.20;;;;;;;13.15;89.49;101431.16;105852;1251;69816;-52
2023/10/01 07:22:55;;;;;;;8.40;2.90;;;;;;;13.29;89.20;101432.15;105781;1251;74717;-53
2023/10/01 07:25:32;;;;;;;7.20;3.00;;;;;;;13.47;89.19;101438.23;105698;1256;83333;-53
2023/10/01 07:28:02;;;;;;;8.00;3.20;;;;;;;13.69;89.17;101438.59;105613;1251;73837;-54
2023/10/01 07:30:39;;;;;;;7.00;3.00;;;;;;;13.86;88.93;101438.35;105672;1251;69067;-50
2023/10/01 07:33:11;;;;;;;6.80;3.20;;;;;;;14.02;88.50;101431.48;105793;1251;69614;-50
2023/10/01 07:35:44;;;;;;;8.80;3.60;;;;;;;14.18;88.51;101428.78;105781;1255;73810;-53
2023/10/01 07:38:13;;;;;;;8.50;3.50;;;;;;;14.34;88.26;101422.76;105677;1256;83595;-52
2023/10/01 07:40:59;;;;;;;6.10;2.80;;;;;;;14.51;88.04;101417.59;105612;1254;73920;-56
2023/10/01 07:43:28;;;;;;;8.20;2.90;;;;;;;14.65;87.85;101407.92;105702;1253;69760;-52
2023/10/01 07:46:02;;;;;;;5.20;2.30;;;;;;;14.81;87.49;101408.75;105674;1256;69104;-54
2023/10/01 07:48:35;;;;;;;7.40;2.70;;;;;;;14.93;86.65;101404.73;105858;1256;75039;-49
2023/10/01 07:51:22;;;;;;;10.10;2.50;;;;;;;15.08;86.07;101409.80;105839;1251;83599;-54
2023/10/01 07:53:52;;;;;;;6.50;2.60;;;;;;;15.26;85.69;101401.69;105776;1251;72390;-53
2023/10/01 07:56:23;;;;;;;6.60;2.00;;;;;;;15.43;85.10;101400.79;105673;1251;69061;-55
2023/10/01 08:01:42;;;;;;;7.90;2.10;;;;;;;15.70;83.32;101404.83;105687;1252;74740;-56
2023/10/01 08:07:15;;;;;;;7.70;2.30;;;;;;;15.96;82.22;101393.13;105741;1256;73533;-53
2023/10/01 08:09:51;;;;;;;4.80;2.30;;;;;;;16.12;81.62;101398.42;105849;1255;69117;-55
2023/10/01 08:17:56;;;;;;;8.70;2.30;;;;;;;16.35;79.81;101404.44;105719;1256;83584;-54
2023/10/01 08:20:31;;;;;;;5.50;1.70;;;;;;;16.41;79.18;101405.55;105594;1256;73897;-55
2023/10/01 08:23:22;;;;;;;5.10;2.10;;;;;;;16.48;78.63;101405.61;105741;1256;69104;-55
2023/10/01 08:25:51;;;;;;;5.70;2.10;;;;;;;16.56;77.91;101409.85;105617;1255;69113;-55
2023/10/01 08:31:20;;;;;;;5.90;1.90;;;;;;;16.73;76.92;101413.30;105701;1252;82559;-56
2023/10/01 08:33:51;;;;;;;7.90;1.90;;;;;;;16.77;76.00;101420.92;105940;1256;72417;-55
2023/10/01 08:36:24;;;;;;;4.60;1.80;;;;;;;16.81;75.65;101423.19;105778;1254;69117;-56
2023/10/01 08:41:52;;;;;;;7.00;1.80;;;;;;;16.99;74.69;101423.08;105589;1254;74801;-57
2023/10/01 08:44:30;;;;;;;9.20;2.10;;;;;;;17.02;74.23;101427.99;105511;1251;84159;-56
2023/10/01 08:47:01;;;;;;;5.40;1.70;;;;;;;17.01;73.70;101429.66;105726;1256;72722;-58
2023/10/01 08:49:31;;;;;;;6.70;2.10;;;;;;;16.96;72.96;101428.84;105665;1256;69730;-58
2023/10/01 08:52:19;;;;;;;6.70;2.10;;;;;;;16.95;72.79;101427.80;105733;1251;69029;-58
2023/10/01 08:54:49;;;;;;;4.20;1.70;;;;;;;17.03;72.76;101428.15;105797;1256;75072;-58
2023/10/01 08:57:22;;;;;;;6.30;1.80;;;;;;;17.12;72.40;101427.73;106033;1256;83000;-58
2023/10/01 08:59:53;;;;;;;5.50;1.70;;;;;;;17.21;71.97;101429.25;105715;1253;73663;-58
2023/10/01 09:02:23;;;;;;;5.90;2.20;;;;;;;17.25;71.49;101431.31;105924;1255;69198;-58
2023/10/01 09:04:53;;;;;;;7.40;2.80;;;;;;;17.27;71.02;101431.59;105740;1251;69074;-57
2023/10/01 09:07:40;;;;;;;5.40;2.30;;;;;;;17.33;70.75;101427.77;105652;1253;75025;-57
2023/10/01 09:10:17;;;;;;;9.30;2.40;;;;;;;17.36;70.21;101430.28;105809;1256;83311;-57
2023/10/01 09:12:46;;;;;;;7.50;2.00;;;;;;;17.46;69.94;101430.47;105690;1253;73564;-58
2023/10/01 09:15:28;;;;;;;8.00;2.40;;;;;;;17.56;69.50;101423.63;105859;1256;69241;-58
2023/10/01 09:18:10;;;;;;;6.50;1.80;;;;;;;17.65;69.22;101420.36;105639;1251;69654;-56
2023/10/01 09:20:42;;;;;;;6.40;1.90;;;;;;;17.72;68.83;101421.03;106166;1251;75046;-56
2023/10/01 09:23:10;;;;;;;6.50;2.30;;;;;;;17.78;68.74;101413.86;105894;1251;82522;-55
2023/10/01 09:25:42;;;;;;;5.20;2.20;;;;;;;17.89;68.60;101413.67;105595;1253;73802;-57
2023/10/01 09:28:20;;;;;;;4.50;2.10;;;;;;;18.01;68.43;101413.41;105780;1251;69194;-57
2023/10/01 09:31:27;;;;;;;7.20;2.10;;;;;;;18.20;68.21;101408.36;105645;1254;69091;-57
2023/10/01 09:33:56;;;;;;;8.90;2.30;;;;;;;18.27;67.00;101408.48;105639;1256;73866;-56
2023/10/01 09:36:45;;;;;;;8.50;2.50;;;;;;;18.28;66.57;101408.27;105600;1257;83282;-56
2023/10/01 09:39:22;;;;;;;;;;;;;;;18.37;66.41;101409.40;105755;1253;73690;-55
2023/10/01 09:41:52;;;;;;;5.90;2.10;;;;;;;18.49;66.16;101403.94;105696;1256;69253;-57
2023/10/01 09:44:20;;;;;;;6.50;2.20;;;;;;;18.59;66.03;101404.83;105490;1251;69153;-57
2023/10/01 09:46:50;;;;;;;5.60;2.10;;;;;;;18.68;65.82;101400.78;105528;1257;74184;-57
2023/10/01 09:49:30;;;;;;;6.90;2.10;;;;;;;18.69;65.14;101404.13;106024;1255;83326;-55
2023/10/01 09:52:01;;;;;;;6.00;1.90;;;;;;;18.64;64.72;101400.13;105900;1253;72654;-57
2023/10/01 09:54:39;;;;;;;5.20;2.20;;;;;;;18.63;64.62;101401.25;105911;1251;69187;-55
2023/10/01 09:57:08;;;;;;;7.10;2.40;;;;;;;18.69;64.40;101403.73;105444;1253;69154;-56
2023/10/01 09:59:40;;;;;;;5.30;2.00;;;;;;;18.82;64.35;101400.96;105670;1251;74618;-56
2023/10/01 10:02:10;;;;;;;7.10;2.10;;;;;;;19.11;64.43;101404.80;105691;1254;82287;-56
2023/10/01 10:04:40;;;;;;;4.80;1.80;;;;;;;19.38;63.99;101402.73;105756;1251;72515;-55
2023/10/01 10:07:09;;;;;;;5.80;2.20;;;;;;;19.65;63.57;101399.06;105947;1251;69052;-58
2023/10/01 10:09:37;;;;;;;5.40;2.10;;;;;;;19.93;63.05;101400.23;105670;1251;69262;-57
2023/10/01 10:12:07;;;;;;;5.90;2.40;;;;;;;20.19;62.55;101400.60;105516;1253;74845;-57
2023/10/01 10:14:36;;;;;;;5.90;2.20;;;;;;;20.39;61.95;101404.99;105571;1255;82325;-57
2023/10/01 10:17:18;;;;;;;6.90;2.10;;;;;;;20.56;61.21;101405.75;105635;1251;73715;-55
2023/10/01 10:20:39;;;;;;;6.50;1.80;;;;;;;20.76;60.72;101398.33;105580;1251;69094;-58
2023/10/01 10:23:13;;;;;;;8.00;2.20;;;;;;;20.94;59.90;101397.67;105748;1254;69133;-57
2023/10/01 10:25:44;;;;;;;4.50;1.90;;;;;;;21.04;59.50;101393.29;105747;1251;73915;-57
2023/10/01 10:28:29;;;;;;;10.60;2.20;;;;;;;21.22;59.39;101396.71;105643;1256;83558;-57
2023/10/01 10:31:29;;;;;;;6.80;1.70;;;;;;;21.41;58.92;101391.73;105587;1251;73604;-57
2023/10/01 10:34:21;;;;;;;6.90;2.00;;;;;;;21.43;58.19;101386.64;105508;1253;69286;-57
2023/10/01 10:36:54;;;;;;;9.50;2.40;;;;;;;21.43;57.86;101382.55;105539;1254;69119;-57
2023/10/01 10:40:02;;;;;;;5.60;2.00;;;;;;;21.62;57.76;101383.05;105598;1256;73471;-57
2023/10/01 10:42:35;;;;;;;7.70;2.20;;;;;;;21.80;57.41;101385.95;105738;1249;83479;-57
2023/10/01 10:45:23;;;;;;;4.90;1.90;;;;;;;21.75;56.48;101384.33;105581;1251;73680;-57
2023/10/01 10:48:00;;;;;;;5.50;1.90;;;;;;;21.69;56.42;101383.65;105625;1256;69121;-58
2023/10/01 10:50:53;;;;;;;6.80;1.70;;;;;;;21.56;56.02;101376.55;105627;1255;69176;-57
2023/10/01 10:53:40;;;;;;;6.20;2.10;;;;;;;21.58;56.08;101375.53;105573;1254;74688;-57
2023/10/01 10:56:15;;;;;;;4.00;1.70;;;;;;;21.51;55.69;101376.73;105782;1251;82542;-57
2023/10/01 10:59:01;;;;;;;6.40;2.20;;;;;;;21.52;55.61;101379.12;105601;1251;73464;-58
2023/10/01 11:01:56;;;;;;;4.60;2.10;;;;;;;21.50;55.33;101382.45;105691;1251;69007;-58
2023/10/01 11:04:19;;;;;;;5.70;1.70;;;;;;;21.45;55.06;101388.30;105609;1254;69128;-58
2023/10/01 11:07:04;;;;;;;5.50;2.20;;;;;;;21.55;55.14;101387.94;105624;1251;74597;-57
2023/10/01 11:09:34;;;;;;;4.50;1.70;;;;;;;21.79;55.15;101386.38;105617;1256;83388;-57
2023/10/01 11:12:18;;;;;;;6.40;2.20;;;;;;;22.09;54.87;101375.92;105568;1251;72621;-57
2023/10/01 11:17:49;;;;;;;4.90;2.30;;;;;;;22.82;54.23;101375.35;105642;1256;69121;-58
2023/10/01 11:20:24;;;;;;;5.80;2.00;;;;;;;23.10;53.35;101367.08;105561;1256;73940;-58
2023/10/01 11:22:55;;;;;;;6.40;2.10;;;;;;;23.29;52.45;101364.62;105545;1251;83742;-57
2023/10/01 11:25:24;;;;;;;9.30;2.70;;;;;;;23.53;52.48;101362.08;105747;1251;73855;-57
2023/10/01 11:28:05;;;;;;;5.60;1.90;;;;;;;23.73;51.81;101361.47;105663;1252;69209;-58
2023/10/01 11:30:43;;;;;;;6.40;1.80;;;;;;;23.91;51.06;101360.40;105521;1256;69208;-58
2023/10/01 11:38:39;;;;;;;5.80;2.10;;;;;;;24.75;49.89;101358.36;105549;1251;73655;-58
2023/10/01 11:41:09;;;;;;;7.30;2.00;;;;;;;24.75;49.02;101354.31;105647;1251;69180;-57
2023/10/01 11:43:42;;;;;;;4.50;1.70;;;;;;;24.81;48.59;101346.07;105558;1251;69153;-58
2023/10/01 11:46:19;;;;;;;5.20;1.70;;;;;;;24.96;48.17;101343.08;105618;1251;75185;-58
2023/10/01 11:49:02;;;;;;;4.10;1.70;;;;;;;25.12;47.69;101343.31;105614;1252;83172;-58
2023/10/01 11:51:43;;;;;;;5.70;2.20;;;;;;;25.33;47.13;101341.08;105560;1251;73771;-58
2023/10/01 11:54:13;;;;;;;4.60;2.00;;;;;;;25.44;46.67;101345.16;105597;1251;69003;-58
2023/10/01 11:56:42;;;;;;;4.90;2.10;;;;;;;25.62;46.37;101342.38;105592;1251;69121;-58
2023/10/01 11:59:17;;;;;;;;;;;;;;;25.47;45.80;101336.13;105832;1251;74620;-58
2023/10/01 12:01:49;;;;;;;5.90;2.20;;;;;;;25.24;45.35;101335.74;105630;1256;83063;-57
2023/10/01 12:07:18;;;;;;;3.80;1.70;;;;;;;25.11;45.05;101334.45;105627;1253;69180;-57
2023/10/01 12:09:52;;;;;;;6.40;2.20;;;;;;;25.29;45.05;101325.27;105586;1253;69100;-57
2023/10/01 12:12:27;;;;;;;7.70;2.20;;;;;;;25.48;45.19;101332.83;105570;1254;74804;-57
2023/10/01 12:14:56;;;;;;;5.50;1.90;;;;;;;25.52;44.67;101331.63;105766;1253;83567;-58
2023/10/01 12:17:26;;;;;;;4.90;1.60;;;;;;;25.55;44.48;101332.89;105593;1255;72781;-57
2023/10/01 12:19:57;;;;;;;6.10;1.80;;;;;;;25.54;44.30;101330.52;105541;1256;69165;-57
2023/10/01 12:22:27;;;;;;;5.40;1.90;;;;;;;25.63;44.06;101333.84;105762;1255;69185;-58
2023/10/01 12:24:59;;;;;;;4.60;1.50;;;;;;;25.60;43.80;101328.23;105598;1253;74820;-57
2023/10/01 12:27:42;;;;;;;6.40;2.40;;;;;;;25.37;43.70;101324.42;105529;1255;82190;-57
2023/10/01 12:30:27;;;;;;;6.20;2.00;;;;;;;25.42;43.49;101317.58;105684;1251;73905;-57
2023/10/01 12:33:00;;;;;;;4.90;1.80;;;;;;;25.25;43.09;101309.53;105552;1253;69182;-57
2023/10/01 12:35:32;;;;;;;3.50;1.70;;;;;;;25.12;42.98;101316.14;105570;1252;69176;-57
2023/10/01 12:38:36;;;;;;;5.10;2.10;;;;;;;24.92;43.04;101317.88;105551;1254;73351;-57
2023/10/01 12:40:56;;;;;;;3.90;1.90;;;;;;;24.49;42.65;101310.59;105691;1256;83579;-58
2023/10/01 12:43:36;;;;;;;3.90;1.80;;;;;;;24.40;43.03;101306.17;105529;1254;73889;-58
2023/10/01 12:46:08;;;;;;;6.80;2.30;;;;;;;24.56;43.27;101307.93;105604;1251;69066;-57
2023/10/01 12:48:40;;;;;;;5.10;1.70;;;;;;;24.63;43.13;101311.28;105628;1256;69263;-57
2023/10/01 12:51:08;;;;;;;6.50;1.90;;;;;;;24.61;42.98;101313.06;105677;1251;74899;-57
2023/10/01 12:53:59;;;;;;;7.00;2.30;;;;;;;24.59;42.93;101309.46;105776;1251;82434;-57